createdAt,value
2023-05-10T00:00:19.175Z,500.00
2023-05-10T00:01:18.861Z,500.00
2023-05-10T00:02:18.968Z,500.00
2023-05-10T00:03:19.012Z,434.00
2023-05-10T00:04:19.115Z,400.00
2023-05-10T00:05:19.060Z,400.00
2023-05-10T00:06:19.152Z,400.00
2023-05-10T00:07:19.192Z,400.00
2023-05-10T00:08:19.265Z,414.00
2023-05-10T00:09:20.170Z,434.00
2023-05-10T00:10:19.382Z,466.00
2023-05-10T00:11:21.588Z,499.00
2023-05-10T00:12:19.467Z,489.00
2023-05-10T00:13:19.504Z,463.00
2023-05-10T00:14:19.440Z,443.00
2023-05-10T00:15:19.444Z,437.00
2023-05-10T00:16:19.456Z,423.00
2023-05-10T00:17:19.411Z,456.00
2023-05-10T00:18:19.416Z,495.00
2023-05-10T00:19:19.526Z,502.00
2023-05-10T00:20:19.582Z,503.00
2023-05-10T00:21:19.389Z,501.00
2023-05-10T00:22:19.390Z,501.00
2023-05-10T00:23:19.376Z,501.00
2023-05-10T00:24:19.374Z,500.00
2023-05-10T00:25:19.355Z,506.00
2023-05-10T00:26:19.356Z,500.00
2023-05-10T00:27:19.359Z,500.00
2023-05-10T00:28:19.345Z,500.00
2023-05-10T00:29:19.361Z,503.00
2023-05-10T00:30:19.444Z,502.00
2023-05-10T00:31:19.342Z,504.00
2023-05-10T00:32:19.372Z,502.00
2023-05-10T00:33:19.380Z,500.00
2023-05-10T00:34:19.310Z,501.00
2023-05-10T00:35:19.321Z,503.00
2023-05-10T00:36:19.294Z,504.00
2023-05-10T00:37:19.291Z,500.00
2023-05-10T00:38:19.282Z,506.00
2023-05-10T00:39:19.284Z,502.00
2023-05-10T00:40:19.459Z,503.00
2023-05-10T00:41:19.263Z,502.00
2023-05-10T00:42:19.251Z,505.00
2023-05-10T00:43:19.285Z,500.00
2023-05-10T00:44:19.249Z,502.00
2023-05-10T00:45:19.272Z,504.00
2023-05-10T00:46:19.292Z,500.00
2023-05-10T00:47:19.258Z,505.00
2023-05-10T00:48:19.237Z,510.00
2023-05-10T00:49:19.225Z,505.00
2023-05-10T00:50:19.234Z,502.00
2023-05-10T00:51:19.232Z,501.00
2023-05-10T00:52:19.232Z,507.00
2023-05-10T00:53:19.228Z,505.00
2023-05-10T00:54:19.227Z,504.00
2023-05-10T00:55:19.241Z,505.00
2023-05-10T00:56:19.295Z,505.00
2023-05-10T00:57:19.327Z,500.00
2023-05-10T00:58:19.390Z,500.00
2023-05-10T00:59:19.375Z,504.00
2023-05-10T01:00:19.393Z,504.00
2023-05-10T01:01:19.580Z,505.00
2023-05-10T01:02:19.468Z,503.00
2023-05-10T01:03:19.588Z,505.00
2023-05-10T01:04:19.396Z,507.00
2023-05-10T01:05:19.445Z,500.00
2023-05-10T01:06:19.410Z,504.00
2023-05-10T01:07:19.406Z,501.00
2023-05-10T01:08:19.455Z,504.00
2023-05-10T01:09:19.447Z,505.00
2023-05-10T01:10:19.440Z,501.00
2023-05-10T01:11:19.423Z,501.00
2023-05-10T01:12:19.474Z,505.00
2023-05-10T01:13:19.527Z,508.00
2023-05-10T01:14:19.554Z,508.00
2023-05-10T01:15:19.580Z,504.00
2023-05-10T01:16:19.649Z,508.00
2023-05-10T01:17:19.662Z,507.00
2023-05-10T01:18:19.640Z,506.00
2023-05-10T01:19:19.646Z,512.00
2023-05-10T01:20:19.799Z,509.00
2023-05-10T01:21:19.655Z,510.00
2023-05-10T01:22:19.632Z,507.00
2023-05-10T01:23:19.664Z,508.00
2023-05-10T01:24:19.632Z,511.00
2023-05-10T01:25:19.626Z,510.00
2023-05-10T01:26:19.635Z,512.00
2023-05-10T01:27:19.636Z,507.00
2023-05-10T01:28:19.616Z,507.00
2023-05-10T01:29:19.616Z,508.00
2023-05-10T01:30:22.235Z,502.00
2023-05-10T01:31:19.663Z,517.00
2023-05-10T01:32:19.606Z,508.00
2023-05-10T01:33:19.630Z,512.00
2023-05-10T01:34:19.586Z,507.00
2023-05-10T01:35:19.583Z,508.00
2023-05-10T01:36:19.615Z,507.00
2023-05-10T01:37:19.570Z,506.00
2023-05-10T01:38:19.571Z,509.00
2023-05-10T01:39:19.590Z,506.00
2023-05-10T01:40:19.556Z,507.00
2023-05-10T01:41:19.544Z,504.00
2023-05-10T01:42:19.537Z,510.00
2023-05-10T01:43:19.530Z,510.00
2023-05-10T01:44:19.525Z,507.00
2023-05-10T01:45:19.526Z,509.00
2023-05-10T01:46:19.595Z,511.00
2023-05-10T01:47:19.529Z,506.00
2023-05-10T01:48:19.515Z,508.00
2023-05-10T01:49:19.524Z,506.00
2023-05-10T01:50:19.661Z,510.00
2023-05-10T01:51:19.478Z,508.00
2023-05-10T01:52:19.476Z,502.00
2023-05-10T01:53:19.477Z,505.00
2023-05-10T01:54:19.465Z,509.00
2023-05-10T01:55:19.479Z,506.00
2023-05-10T01:56:19.440Z,508.00
2023-05-10T01:57:19.451Z,509.00
2023-05-10T01:58:19.439Z,508.00
2023-05-10T01:59:19.442Z,504.00
2023-05-10T02:00:19.434Z,507.00
2023-05-10T02:01:19.472Z,508.00
2023-05-10T02:02:19.408Z,505.00
2023-05-10T02:03:19.438Z,505.00
2023-05-10T02:04:19.394Z,508.00
2023-05-10T02:05:19.419Z,507.00
2023-05-10T02:06:19.380Z,506.00
2023-05-10T02:07:19.386Z,507.00
2023-05-10T02:08:19.374Z,508.00
2023-05-10T02:09:19.364Z,507.00
2023-05-10T02:10:19.528Z,508.00
2023-05-10T02:11:19.363Z,509.00
2023-05-10T02:12:19.344Z,503.00
2023-05-10T02:13:19.374Z,509.00
2023-05-10T02:14:19.342Z,509.00
2023-05-10T02:15:19.325Z,509.00
2023-05-10T02:16:19.349Z,506.00
2023-05-10T02:17:19.310Z,505.00
2023-05-10T02:18:19.314Z,507.00
2023-05-10T02:19:19.297Z,508.00
2023-05-10T02:20:19.493Z,506.00
2023-05-10T02:21:19.308Z,508.00
2023-05-10T02:22:19.271Z,508.00
2023-05-10T02:23:19.271Z,509.00
2023-05-10T02:24:19.264Z,508.00
2023-05-10T02:25:19.251Z,506.00
2023-05-10T02:26:19.320Z,502.00
2023-05-10T02:27:19.338Z,507.00
2023-05-10T02:28:19.383Z,505.00
2023-05-10T02:29:19.381Z,506.00
2023-05-10T02:30:19.443Z,509.00
2023-05-10T02:31:19.477Z,506.00
2023-05-10T02:32:19.483Z,505.00
2023-05-10T02:33:19.475Z,501.00
2023-05-10T02:34:19.456Z,504.00
2023-05-10T02:35:19.451Z,508.00
2023-05-10T02:36:19.466Z,504.00
2023-05-10T02:37:19.487Z,507.00
2023-05-10T02:38:19.455Z,505.00
2023-05-10T02:39:19.464Z,509.00
2023-05-10T02:40:19.593Z,507.00
2023-05-10T02:41:19.461Z,506.00
2023-05-10T02:42:19.461Z,507.00
2023-05-10T02:43:19.511Z,508.00
2023-05-10T02:44:19.479Z,507.00
2023-05-10T02:45:19.488Z,505.00
2023-05-10T02:46:19.550Z,509.00
2023-05-10T02:47:19.526Z,506.00
2023-05-10T02:48:19.523Z,503.00
2023-05-10T02:49:19.528Z,504.00
2023-05-10T02:50:19.619Z,503.00
2023-05-10T02:51:19.546Z,504.00
2023-05-10T02:52:19.587Z,504.00
2023-05-10T02:53:19.616Z,505.00
2023-05-10T02:54:19.624Z,506.00
2023-05-10T02:55:19.592Z,505.00
2023-05-10T02:56:19.589Z,504.00
2023-05-10T02:57:19.598Z,508.00
2023-05-10T02:58:19.626Z,505.00
2023-05-10T02:59:19.631Z,506.00
2023-05-10T03:00:19.629Z,506.00
2023-05-10T03:01:19.668Z,503.00
2023-05-10T03:02:19.697Z,506.00
2023-05-10T03:03:19.651Z,506.00
2023-05-10T03:04:19.676Z,505.00
2023-05-10T03:05:19.677Z,502.00
2023-05-10T03:06:19.674Z,503.00
2023-05-10T03:07:19.681Z,506.00
2023-05-10T03:08:19.689Z,503.00
2023-05-10T03:09:19.736Z,505.00
2023-05-10T03:10:19.803Z,507.00
2023-05-10T03:11:19.715Z,503.00
2023-05-10T03:12:19.713Z,504.00
2023-05-10T03:13:19.835Z,506.00
2023-05-10T03:14:19.720Z,507.00
2023-05-10T03:15:19.728Z,505.00
2023-05-10T03:16:19.751Z,503.00
2023-05-10T03:17:19.776Z,505.00
2023-05-10T03:18:19.773Z,508.00
2023-05-10T03:19:19.782Z,506.00
2023-05-10T03:20:19.773Z,504.00
2023-05-10T03:21:19.773Z,503.00
2023-05-10T03:22:19.776Z,508.00
2023-05-10T03:23:19.805Z,509.00
2023-05-10T03:24:19.852Z,508.00
2023-05-10T03:25:19.899Z,509.00
2023-05-10T03:26:19.882Z,508.00
2023-05-10T03:27:19.870Z,507.00
2023-05-10T03:28:19.872Z,505.00
2023-05-10T03:29:19.873Z,502.00
2023-05-10T03:30:19.889Z,508.00
2023-05-10T03:31:19.919Z,505.00
2023-05-10T03:32:19.889Z,507.00
2023-05-10T03:33:19.897Z,501.00
2023-05-10T03:34:19.906Z,507.00
2023-05-10T03:35:19.932Z,506.00
2023-05-10T03:36:19.921Z,501.00
2023-05-10T03:37:19.924Z,506.00
2023-05-10T03:38:19.916Z,506.00
2023-05-10T03:39:19.917Z,507.00
2023-05-10T03:40:20.048Z,504.00
2023-05-10T03:41:19.957Z,509.00
2023-05-10T03:42:19.909Z,512.00
2023-05-10T03:43:19.926Z,509.00
2023-05-10T03:44:19.925Z,504.00
2023-05-10T03:45:19.922Z,508.00
2023-05-10T03:46:19.950Z,507.00
2023-05-10T03:47:19.919Z,502.00
2023-05-10T03:48:19.935Z,504.00
2023-05-10T03:49:19.930Z,506.00
2023-05-10T03:50:20.184Z,504.00
2023-05-10T03:51:19.936Z,508.00
2023-05-10T03:52:19.943Z,510.00
2023-05-10T03:53:19.939Z,508.00
2023-05-10T03:54:19.940Z,507.00
2023-05-10T03:55:19.946Z,507.00
2023-05-10T03:56:19.955Z,505.00
2023-05-10T03:57:19.987Z,506.00
2023-05-10T03:58:19.945Z,505.00
2023-05-10T03:59:19.944Z,506.00
2023-05-10T04:00:20.072Z,504.00
2023-05-10T04:01:19.971Z,508.00
2023-05-10T04:02:20.031Z,514.00
2023-05-10T04:03:20.002Z,508.00
2023-05-10T04:04:20.127Z,503.00
2023-05-10T04:05:19.967Z,508.00
2023-05-10T04:06:20.020Z,505.00
2023-05-10T04:07:19.978Z,505.00
2023-05-10T04:08:19.967Z,510.00
2023-05-10T04:09:19.974Z,505.00
2023-05-10T04:10:20.056Z,508.00
2023-05-10T04:11:19.954Z,506.00
2023-05-10T04:12:19.971Z,513.00
2023-05-10T04:13:20.011Z,512.00
2023-05-10T04:14:19.961Z,505.00
2023-05-10T04:15:19.938Z,509.00
2023-05-10T04:16:19.985Z,508.00
2023-05-10T04:17:19.990Z,505.00
2023-05-10T04:18:19.950Z,506.00
2023-05-10T04:19:19.949Z,504.00
2023-05-10T04:20:19.951Z,509.00
2023-05-10T04:21:19.950Z,508.00
2023-05-10T04:22:19.950Z,511.00
2023-05-10T04:23:19.943Z,508.00
2023-05-10T04:24:19.938Z,509.00
2023-05-10T04:25:19.949Z,504.00
2023-05-10T04:26:19.950Z,506.00
2023-05-10T04:27:19.955Z,507.00
2023-05-10T04:28:19.938Z,506.00
2023-05-10T04:29:20.085Z,507.00
2023-05-10T04:30:19.950Z,506.00
2023-05-10T04:31:20.110Z,503.00
2023-05-10T04:32:19.956Z,507.00
2023-05-10T04:33:19.966Z,505.00
2023-05-10T04:34:19.954Z,503.00
2023-05-10T04:35:19.972Z,506.00
2023-05-10T04:36:19.948Z,500.00
2023-05-10T04:37:19.962Z,504.00
2023-05-10T04:38:19.982Z,509.00
2023-05-10T04:39:20.014Z,506.00
2023-05-10T04:40:19.956Z,509.00
2023-05-10T04:41:19.954Z,507.00
2023-05-10T04:42:19.981Z,505.00
2023-05-10T04:43:19.976Z,510.00
2023-05-10T04:44:20.003Z,506.00
2023-05-10T04:45:20.010Z,509.00
2023-05-10T04:46:19.976Z,503.00
2023-05-10T04:47:20.790Z,507.00
2023-05-10T04:48:19.964Z,509.00
2023-05-10T04:49:19.971Z,504.00
2023-05-10T04:50:19.980Z,509.00
2023-05-10T04:51:19.969Z,505.00
2023-05-10T04:52:20.006Z,509.00
2023-05-10T04:53:19.962Z,514.00
2023-05-10T04:54:19.963Z,509.00
2023-05-10T04:55:19.968Z,509.00
2023-05-10T04:56:19.963Z,504.00
2023-05-10T04:57:19.969Z,506.00
2023-05-10T04:58:19.963Z,506.00
2023-05-10T04:59:19.948Z,509.00
2023-05-10T05:00:19.954Z,505.00
2023-05-10T05:01:20.012Z,508.00
2023-05-10T05:02:19.972Z,507.00
2023-05-10T05:03:20.058Z,505.00
2023-05-10T05:04:19.975Z,509.00
2023-05-10T05:05:19.968Z,505.00
2023-05-10T05:06:20.033Z,508.00
2023-05-10T05:07:19.960Z,507.00
2023-05-10T05:08:19.962Z,504.00
2023-05-10T05:09:19.959Z,505.00
2023-05-10T05:10:20.214Z,511.00
2023-05-10T05:11:19.957Z,507.00
2023-05-10T05:12:19.962Z,506.00
2023-05-10T05:13:20.073Z,504.00
2023-05-10T05:14:19.985Z,509.00
2023-05-10T05:15:19.954Z,505.00
2023-05-10T05:16:19.977Z,510.00
2023-05-10T05:17:19.997Z,500.00
2023-05-10T05:18:19.939Z,505.00
2023-05-10T05:19:20.309Z,507.00
2023-05-10T05:20:20.029Z,506.00
2023-05-10T05:21:20.337Z,503.00
2023-05-10T05:22:19.960Z,504.00
2023-05-10T05:23:19.943Z,506.00
2023-05-10T05:24:19.965Z,504.00
2023-05-10T05:25:19.940Z,507.00
2023-05-10T05:26:20.298Z,506.00
2023-05-10T05:27:19.944Z,508.00
2023-05-10T05:28:19.944Z,512.00
2023-05-10T05:29:19.973Z,512.00
2023-05-10T05:30:19.958Z,511.00
2023-05-10T05:31:20.072Z,509.00
2023-05-10T05:32:19.947Z,513.00
2023-05-10T05:33:19.989Z,509.00
2023-05-10T05:34:19.967Z,512.00
2023-05-10T05:35:20.305Z,515.00
2023-05-10T05:36:19.968Z,515.00
2023-05-10T05:37:19.976Z,515.00
2023-05-10T05:38:19.967Z,520.00
2023-05-10T05:39:19.968Z,517.00
2023-05-10T05:40:20.310Z,521.00
2023-05-10T05:41:19.971Z,518.00
2023-05-10T05:42:20.020Z,523.00
2023-05-10T05:43:20.011Z,525.00
2023-05-10T05:44:20.006Z,517.00
2023-05-10T05:45:20.538Z,522.00
2023-05-10T05:46:20.090Z,529.00
2023-05-10T05:47:20.081Z,531.00
2023-05-10T05:48:20.040Z,535.00
2023-05-10T05:49:20.434Z,539.00
2023-05-10T05:50:20.362Z,541.00
2023-05-10T05:51:21.009Z,554.00
2023-05-10T05:52:20.006Z,555.00
2023-05-10T05:53:20.156Z,561.00
2023-05-10T05:54:20.351Z,570.00
2023-05-10T05:55:20.003Z,585.00
2023-05-10T05:56:20.006Z,591.00
2023-05-10T05:57:20.002Z,604.00
2023-05-10T05:58:20.318Z,614.00
2023-05-10T05:59:20.087Z,623.00
2023-05-10T06:00:21.314Z,631.00
2023-05-10T06:01:20.183Z,635.00
2023-05-10T06:02:20.259Z,637.00
2023-05-10T06:03:20.473Z,645.00
2023-05-10T06:04:20.895Z,655.00
2023-05-10T06:05:20.843Z,661.00
2023-05-10T06:06:20.473Z,672.00
2023-05-10T06:07:20.820Z,709.00
2023-05-10T06:08:20.679Z,720.00
2023-05-10T06:09:23.847Z,737.00
2023-05-10T06:10:20.641Z,739.00
2023-05-10T06:11:20.644Z,747.00
2023-05-10T06:12:20.926Z,764.00
2023-05-10T06:13:20.664Z,791.00
2023-05-10T06:14:20.869Z,849.00
2023-05-10T06:15:20.824Z,867.00
2023-05-10T06:16:20.627Z,880.00
2023-05-10T06:17:20.589Z,895.00
2023-05-10T06:18:20.597Z,919.00
2023-05-10T06:19:20.590Z,930.00
2023-05-10T06:20:20.828Z,951.00
2023-05-10T06:21:20.603Z,969.00
2023-05-10T06:22:20.560Z,982.00
2023-05-10T06:23:20.544Z,1008.00
2023-05-10T06:24:20.573Z,1027.00
2023-05-10T06:25:20.537Z,1035.00
2023-05-10T06:26:20.553Z,1050.00
2023-05-10T06:27:20.539Z,1068.00
2023-05-10T06:28:20.533Z,1074.00
2023-05-10T06:29:20.853Z,1087.00
2023-05-10T06:30:20.534Z,1095.00
2023-05-10T06:31:20.522Z,1116.00
2023-05-10T06:32:23.829Z,1135.00
2023-05-10T06:33:20.500Z,1136.00
2023-05-10T06:34:20.880Z,1142.00
2023-05-10T06:35:20.484Z,1149.00
2023-05-10T06:36:20.478Z,1167.00
2023-05-10T06:37:20.500Z,1192.00
2023-05-10T06:38:20.468Z,1217.00
2023-05-10T06:39:20.837Z,1220.00
2023-05-10T06:40:20.449Z,1235.00
2023-05-10T06:41:22.567Z,1256.00
2023-05-10T06:42:20.455Z,1258.00
2023-05-10T06:43:20.430Z,1264.00
2023-05-10T06:44:20.436Z,1276.00
2023-05-10T06:45:21.172Z,1293.00
2023-05-10T06:46:20.442Z,1340.00
2023-05-10T06:47:20.408Z,1357.00
2023-05-10T06:48:20.476Z,1338.00
2023-05-10T06:49:20.832Z,1320.00
2023-05-10T06:50:20.853Z,1317.00
2023-05-10T06:51:20.379Z,1305.00
2023-05-10T06:52:20.377Z,1300.00
2023-05-10T06:53:20.388Z,1302.00
2023-05-10T06:54:20.722Z,1309.00
2023-05-10T06:55:24.091Z,1301.00
2023-05-10T06:56:20.347Z,1302.00
2023-05-10T06:57:31.424Z,1303.00
2023-05-10T06:58:20.332Z,1303.00
2023-05-10T06:59:20.386Z,1308.00
2023-05-10T07:00:20.824Z,1307.00
2023-05-10T07:01:20.556Z,1312.00
2023-05-10T07:02:20.328Z,1307.00
2023-05-10T07:03:20.370Z,1298.00
2023-05-10T07:04:20.390Z,1285.00
2023-05-10T07:05:20.790Z,1275.00
2023-05-10T07:06:32.159Z,1274.00
2023-05-10T07:07:20.294Z,1275.00
2023-05-10T07:08:20.275Z,1278.00
2023-05-10T07:09:20.304Z,1279.00
2023-05-10T07:10:20.370Z,1271.00
2023-05-10T07:11:20.260Z,1265.00
2023-05-10T07:12:20.310Z,1254.00
2023-05-10T07:13:20.366Z,1250.00
2023-05-10T07:14:20.234Z,1257.00
2023-05-10T07:15:20.245Z,1240.00
2023-05-10T07:16:20.411Z,1257.00
2023-05-10T07:17:20.258Z,1248.00
2023-05-10T07:18:20.303Z,1230.00
2023-05-10T07:19:20.269Z,1237.00
2023-05-10T07:20:20.196Z,1238.00
2023-05-10T07:21:20.295Z,1239.00
2023-05-10T07:22:20.194Z,1239.00
2023-05-10T07:23:20.189Z,1237.00
2023-05-10T07:24:21.174Z,1245.00
2023-05-10T07:25:20.323Z,1242.00
2023-05-10T07:26:20.166Z,1232.00
2023-05-10T07:27:20.160Z,1231.00
2023-05-10T07:28:20.146Z,1234.00
2023-05-10T07:29:20.367Z,1229.00
2023-05-10T07:30:20.198Z,1228.00
2023-05-10T07:31:20.140Z,1231.00
2023-05-10T07:32:20.436Z,1233.00
2023-05-10T07:33:20.234Z,1233.00
2023-05-10T07:34:20.196Z,1220.00
2023-05-10T07:35:20.366Z,1222.00
2023-05-10T07:36:21.302Z,1214.00
2023-05-10T07:37:20.328Z,1214.00
2023-05-10T07:38:20.354Z,1222.00
2023-05-10T07:39:26.570Z,1226.00
2023-05-10T07:40:20.900Z,1228.00
2023-05-10T07:41:20.399Z,1228.00
2023-05-10T07:42:20.354Z,1232.00
2023-05-10T07:43:20.372Z,1242.00
2023-05-10T07:44:20.425Z,1257.00
2023-05-10T07:45:20.361Z,1280.00
2023-05-10T07:46:20.459Z,1283.00
2023-05-10T07:47:20.406Z,1290.00
2023-05-10T07:48:20.374Z,1295.00
2023-05-10T07:49:20.351Z,1309.00
2023-05-10T07:50:20.384Z,1310.00
2023-05-10T07:51:20.295Z,1325.00
2023-05-10T07:52:22.401Z,1330.00
2023-05-10T07:53:20.316Z,1347.00
2023-05-10T07:54:21.408Z,1345.00
2023-05-10T07:55:20.386Z,1343.00
2023-05-10T07:56:20.314Z,1323.00
2023-05-10T07:57:20.309Z,1319.00
2023-05-10T07:58:20.549Z,1350.00
2023-05-10T07:59:20.241Z,1345.00
2023-05-10T08:00:20.402Z,1337.00
2023-05-10T08:01:20.360Z,1326.00
2023-05-10T08:02:20.270Z,1331.00
2023-05-10T08:03:20.401Z,1326.00
2023-05-10T08:04:20.384Z,1313.00
2023-05-10T08:05:20.364Z,1304.00
2023-05-10T08:06:20.407Z,1305.00
2023-05-10T08:07:20.869Z,1302.00
2023-05-10T08:08:20.527Z,1291.00
2023-05-10T08:09:20.576Z,1291.00
2023-05-10T08:10:20.641Z,1287.00
2023-05-10T08:11:20.700Z,1282.00
2023-05-10T08:12:20.743Z,1276.00
2023-05-10T08:13:20.840Z,1272.00
2023-05-10T08:14:20.898Z,1282.00
2023-05-10T08:15:20.914Z,1278.00
2023-05-10T08:16:21.064Z,1270.00
2023-05-10T08:17:22.116Z,1270.00
2023-05-10T08:18:22.182Z,1289.00
2023-05-10T08:19:21.023Z,1290.00
2023-05-10T08:20:21.392Z,1282.00
2023-05-10T08:21:21.012Z,1270.00
2023-05-10T08:22:21.011Z,1285.00
2023-05-10T08:23:21.030Z,1276.00
2023-05-10T08:24:21.093Z,1262.00
2023-05-10T08:25:21.384Z,1271.00
2023-05-10T08:26:21.210Z,1263.00
2023-05-10T08:27:21.302Z,1262.00
2023-05-10T08:28:21.324Z,1267.00
2023-05-10T08:29:21.417Z,1258.00
2023-05-10T08:30:21.884Z,1240.00
2023-05-10T08:31:21.518Z,1243.00
2023-05-10T08:32:21.520Z,1244.00
2023-05-10T08:33:21.570Z,1234.00
2023-05-10T08:34:21.908Z,1225.00
2023-05-10T08:35:21.886Z,1236.00
2023-05-10T08:36:21.703Z,1225.00
2023-05-10T08:37:21.730Z,1228.00
2023-05-10T08:38:24.959Z,1227.00
2023-05-10T08:39:29.883Z,1228.00
2023-05-10T08:41:22.799Z,1231.00
2023-05-10T08:42:21.744Z,1230.00
2023-05-10T08:43:25.000Z,1234.00
2023-05-10T08:44:21.774Z,1229.00
2023-05-10T08:45:21.905Z,1232.00
2023-05-10T08:46:21.842Z,1234.00
2023-05-10T08:47:21.746Z,1225.00
2023-05-10T08:48:21.721Z,1222.00
2023-05-10T08:49:21.686Z,1211.00
2023-05-10T08:50:21.887Z,1208.00
2023-05-10T08:51:21.687Z,1198.00
2023-05-10T08:52:21.683Z,1209.00
2023-05-10T08:53:21.670Z,1201.00
2023-05-10T08:54:21.667Z,1190.00
2023-05-10T08:55:21.959Z,1192.00
2023-05-10T08:56:21.650Z,1187.00
2023-05-10T08:57:21.718Z,1181.00
2023-05-10T08:58:25.106Z,1194.00
2023-05-10T08:59:21.638Z,1195.00
2023-05-10T09:00:21.631Z,1194.00
2023-05-10T09:01:21.680Z,1183.00
2023-05-10T09:02:21.614Z,1183.00
2023-05-10T09:03:21.597Z,1173.00
2023-05-10T09:04:21.721Z,1173.00
2023-05-10T09:05:21.628Z,1163.00
2023-05-10T09:06:21.584Z,1156.00
2023-05-10T09:07:21.576Z,1163.00
2023-05-10T09:08:21.570Z,1155.00
2023-05-10T09:09:21.889Z,1156.00
2023-05-10T09:10:21.557Z,1156.00
2023-05-10T09:11:22.197Z,1144.00
2023-05-10T09:12:21.561Z,1146.00
2023-05-10T09:13:21.529Z,1146.00
2023-05-10T09:14:21.540Z,1148.00
2023-05-10T09:15:21.904Z,1140.00
2023-05-10T09:16:22.436Z,1142.00
2023-05-10T09:17:21.620Z,1136.00
2023-05-10T09:18:21.528Z,1146.00
2023-05-10T09:19:21.497Z,1124.00
2023-05-10T09:20:21.512Z,1132.00
2023-05-10T09:21:21.577Z,1123.00
2023-05-10T09:22:21.477Z,1137.00
2023-05-10T09:23:21.476Z,1129.00
2023-05-10T09:24:21.466Z,1119.00
2023-05-10T09:25:21.900Z,1119.00
2023-05-10T09:26:21.446Z,1125.00
2023-05-10T09:27:21.443Z,1111.00
2023-05-10T09:28:21.474Z,1100.00
2023-05-10T09:29:21.903Z,1129.00
2023-05-10T09:30:21.506Z,1161.00
2023-05-10T09:31:21.713Z,1178.00
2023-05-10T09:32:21.593Z,1213.00
2023-05-10T09:33:53.485Z,1357.00
2023-05-10T09:34:21.949Z,1360.00
2023-05-10T09:35:21.604Z,1374.00
2023-05-10T09:36:21.903Z,1384.00
2023-05-10T09:37:21.591Z,1415.00
2023-05-10T09:38:21.923Z,1442.00
2023-05-10T09:39:21.572Z,1462.00
2023-05-10T09:40:21.579Z,1449.00
2023-05-10T09:41:21.563Z,1329.00
2023-05-10T09:42:21.574Z,1189.00
2023-05-10T09:43:21.910Z,1136.00
2023-05-10T09:44:21.544Z,1147.00
2023-05-10T09:45:21.912Z,1184.00
2023-05-10T09:46:21.582Z,1227.00
2023-05-10T09:47:21.520Z,1312.00
2023-05-10T09:48:21.515Z,1359.00
2023-05-10T09:49:21.553Z,1374.00
2023-05-10T09:50:21.512Z,1373.00
2023-05-10T09:51:21.526Z,1391.00
2023-05-10T09:52:21.518Z,1415.00
2023-05-10T09:53:21.542Z,1439.00
2023-05-10T09:54:21.997Z,1466.00
2023-05-10T09:55:21.567Z,1496.00
2023-05-10T09:56:29.116Z,1516.00
2023-05-10T09:57:21.615Z,1519.00
2023-05-10T09:58:21.647Z,1531.00
2023-05-10T09:59:21.594Z,1552.00
2023-05-10T10:00:21.618Z,1592.00
2023-05-10T10:01:21.953Z,1672.00
2023-05-10T10:02:21.579Z,1705.00
2023-05-10T10:03:21.569Z,1730.00
2023-05-10T10:04:21.578Z,1741.00
2023-05-10T10:05:21.577Z,1761.00
2023-05-10T10:06:29.519Z,1790.00
2023-05-10T10:07:21.555Z,1792.00
2023-05-10T10:08:21.533Z,1802.00
2023-05-10T10:09:21.554Z,1819.00
2023-05-10T10:10:21.926Z,1863.00
2023-05-10T10:11:21.515Z,1919.00
2023-05-10T10:12:21.510Z,1940.00
2023-05-10T10:13:21.521Z,1962.00
2023-05-10T10:14:21.490Z,1984.00
2023-05-10T10:15:21.799Z,2004.00
2023-05-10T10:16:21.512Z,2031.00
2023-05-10T10:17:21.494Z,2043.00
2023-05-10T10:18:21.477Z,2060.00
2023-05-10T10:19:21.927Z,2078.00
2023-05-10T10:20:21.588Z,2094.00
2023-05-10T10:21:21.953Z,2094.00
2023-05-10T10:22:21.455Z,2120.00
2023-05-10T10:23:21.443Z,2127.00
2023-05-10T10:24:21.429Z,2155.00
2023-05-10T10:25:21.436Z,2159.00
2023-05-10T10:26:21.445Z,2174.00
2023-05-10T10:27:21.399Z,2202.00
2023-05-10T10:28:21.394Z,2188.00
2023-05-10T10:29:21.397Z,2130.00
2023-05-10T10:30:21.388Z,2139.00
2023-05-10T10:31:21.493Z,2148.00
2023-05-10T10:32:21.391Z,2155.00
2023-05-10T10:34:21.356Z,2164.00
2023-05-10T10:35:21.350Z,2166.00
2023-05-10T10:36:21.360Z,2163.00
2023-05-10T10:37:21.379Z,2161.00
2023-05-10T10:38:21.318Z,2165.00
2023-05-10T10:39:21.433Z,2175.00
2023-05-10T10:40:21.309Z,2191.00
2023-05-10T10:41:21.434Z,2202.00
2023-05-10T10:42:21.303Z,2200.00
2023-05-10T10:43:21.286Z,2205.00
2023-05-10T10:44:21.283Z,2216.00
2023-05-10T10:45:21.272Z,2220.00
2023-05-10T10:46:21.290Z,2230.00
2023-05-10T10:47:21.275Z,2234.00
2023-05-10T10:48:21.247Z,2221.00
2023-05-10T10:49:21.248Z,2229.00
2023-05-10T10:50:21.231Z,2225.00
2023-05-10T10:51:21.433Z,2212.00
2023-05-10T10:52:21.216Z,2218.00
2023-05-10T10:53:21.276Z,2223.00
2023-05-10T10:54:21.201Z,2221.00
2023-05-10T10:55:21.210Z,2223.00
2023-05-10T10:56:21.192Z,2245.00
2023-05-10T10:57:21.188Z,2251.00
2023-05-10T10:58:21.179Z,2251.00
2023-05-10T10:59:21.177Z,2258.00
2023-05-10T11:00:21.182Z,2261.00
2023-05-10T11:01:21.496Z,2268.00
2023-05-10T11:02:21.294Z,2276.00
2023-05-10T11:03:21.350Z,2285.00
2023-05-10T11:04:21.469Z,2289.00
2023-05-10T11:05:21.459Z,2309.00
2023-05-10T11:06:21.541Z,2314.00
2023-05-10T11:07:21.582Z,2317.00
2023-05-10T11:08:21.631Z,2293.00
2023-05-10T11:09:21.721Z,2292.00
2023-05-10T11:10:21.761Z,2274.00
2023-05-10T11:11:21.820Z,2268.00
2023-05-10T11:12:21.897Z,2265.00
2023-05-10T11:13:21.939Z,2248.00
2023-05-10T11:14:21.967Z,2246.00
2023-05-10T11:15:22.042Z,2226.00
2023-05-10T11:16:22.078Z,2223.00
2023-05-10T11:17:22.021Z,2211.00
2023-05-10T11:18:22.101Z,2217.00
2023-05-10T11:19:22.021Z,2204.00
2023-05-10T11:20:22.014Z,2193.00
2023-05-10T11:21:22.018Z,2195.00
2023-05-10T11:22:22.318Z,2192.00
2023-05-10T11:23:22.105Z,2179.00
2023-05-10T11:24:22.057Z,2172.00
2023-05-10T11:25:23.030Z,2164.00
2023-05-10T11:26:22.085Z,2159.00
2023-05-10T11:27:22.079Z,2160.00
2023-05-10T11:28:22.090Z,2144.00
2023-05-10T11:29:22.142Z,2146.00
2023-05-10T11:30:22.107Z,2137.00
2023-05-10T11:31:22.270Z,2139.00
2023-05-10T11:32:22.134Z,2130.00
2023-05-10T11:33:22.160Z,2124.00
2023-05-10T11:34:22.163Z,2113.00
2023-05-10T11:35:22.182Z,2114.00
2023-05-10T11:36:22.181Z,2112.00
2023-05-10T11:37:22.199Z,2104.00
2023-05-10T11:38:22.211Z,2102.00
2023-05-10T11:39:22.231Z,2096.00
2023-05-10T11:40:22.238Z,2092.00
2023-05-10T11:41:22.274Z,2112.00
2023-05-10T11:42:22.265Z,2112.00
2023-05-10T11:43:22.292Z,2163.00
2023-05-10T11:44:22.291Z,2149.00
2023-05-10T11:45:22.332Z,2145.00
2023-05-10T11:46:22.423Z,2161.00
2023-05-10T11:47:22.311Z,2144.00
2023-05-10T11:48:22.311Z,2142.00
2023-05-10T11:49:22.324Z,2127.00
2023-05-10T11:50:22.338Z,2135.00
2023-05-10T11:51:22.344Z,2127.00
2023-05-10T11:52:22.365Z,2124.00
2023-05-10T11:53:23.746Z,2110.00
2023-05-10T11:54:22.382Z,2121.00
2023-05-10T11:55:22.379Z,2134.00
2023-05-10T11:56:22.374Z,2113.00
2023-05-10T11:57:22.384Z,2090.00
2023-05-10T11:58:22.353Z,2088.00
2023-05-10T11:59:22.337Z,2087.00
2023-05-10T12:00:22.395Z,2081.00
2023-05-10T12:01:22.475Z,2076.00
2023-05-10T12:02:22.342Z,2080.00
2023-05-10T12:03:22.431Z,2071.00
2023-05-10T12:04:22.416Z,2055.00
2023-05-10T12:05:22.305Z,2039.00
2023-05-10T12:06:22.320Z,2040.00
2023-05-10T12:07:22.288Z,2036.00
2023-05-10T12:08:22.289Z,2038.00
2023-05-10T12:09:35.371Z,2028.00
2023-05-10T12:10:22.291Z,2030.00
2023-05-10T12:11:22.256Z,2035.00
2023-05-10T12:12:22.254Z,2031.00
2023-05-10T12:13:22.266Z,2031.00
2023-05-10T12:14:23.244Z,2019.00
2023-05-10T12:15:22.275Z,2022.00
2023-05-10T12:16:22.520Z,2009.00
2023-05-10T12:17:22.220Z,1995.00
2023-05-10T12:18:22.256Z,1996.00
2023-05-10T12:19:22.214Z,1989.00